createdAt,value
2018-11-28T00:00:35.993Z,24.67
2018-11-28T00:03:06.923Z,22.95
2018-11-28T00:05:34.314Z,25.05
2018-11-28T00:08:01.828Z,23.07
2018-11-28T00:10:29.261Z,23.77
2018-11-28T00:12:56.589Z,25.40
2018-11-28T00:15:23.938Z,24.20
2018-11-28T00:17:51.284Z,25.77
2018-11-28T00:20:20.911Z,24.87
2018-11-28T00:22:48.288Z,23.07
2018-11-28T00:25:16.097Z,24.35
2018-11-28T00:27:43.905Z,24.77
2018-11-28T00:30:12.737Z,24.57
2018-11-28T00:32:40.309Z,26.20
2018-11-28T00:35:08.640Z,25.37
2018-11-28T00:37:36.024Z,20.32
2018-11-28T00:40:03.616Z,26.95
2018-11-28T00:42:31.469Z,25.65
2018-11-28T00:44:58.900Z,25.27
2018-11-28T00:47:26.299Z,23.83
2018-11-28T00:49:53.664Z,20.23
2018-11-28T00:52:21.078Z,22.93
2018-11-28T00:54:48.427Z,26.87
2018-11-28T00:57:15.806Z,24.87
2018-11-28T00:59:43.189Z,22.00
2018-11-28T01:02:10.857Z,28.32
2018-11-28T01:04:38.195Z,23.57
2018-11-28T01:07:06.121Z,25.48
2018-11-28T01:09:33.441Z,24.75
2018-11-28T01:12:01.062Z,26.87
2018-11-28T01:14:28.411Z,26.95
2018-11-28T01:16:55.768Z,23.35
2018-11-28T01:19:23.179Z,25.23
2018-11-28T01:21:50.478Z,26.73
2018-11-28T01:24:17.875Z,24.92
2018-11-28T01:26:45.226Z,24.70
2018-11-28T01:29:12.622Z,26.52
2018-11-28T01:31:40.073Z,25.50
2018-11-28T01:34:07.444Z,26.10
2018-11-28T01:36:34.804Z,23.35
2018-11-28T01:39:02.209Z,28.67
2018-11-28T01:41:29.764Z,27.65
2018-11-28T01:43:57.113Z,26.15
2018-11-28T01:46:24.520Z,23.27
2018-11-28T01:48:52.123Z,26.42
2018-11-28T01:51:19.430Z,25.68
2018-11-28T01:53:46.809Z,28.40
2018-11-28T01:56:14.212Z,26.95
2018-11-28T01:58:41.782Z,27.15
2018-11-28T02:01:09.598Z,26.20
2018-11-28T02:03:36.947Z,25.25
2018-11-28T02:06:04.968Z,26.23
2018-11-28T02:08:32.273Z,28.32
2018-11-28T02:10:59.583Z,25.82
2018-11-28T02:13:27.034Z,24.10
2018-11-28T02:15:54.370Z,25.88
2018-11-28T02:18:21.700Z,25.08
2018-11-28T02:20:48.980Z,26.35
2018-11-28T02:23:16.757Z,26.95
2018-11-28T02:25:44.064Z,24.87
2018-11-28T02:28:11.876Z,25.10
2018-11-28T02:30:39.230Z,25.57
2018-11-28T02:33:06.568Z,24.77
2018-11-28T02:35:33.893Z,25.30
2018-11-28T02:38:01.257Z,27.00
2018-11-28T02:40:28.613Z,24.37
2018-11-28T02:42:55.998Z,26.82
2018-11-28T02:45:23.578Z,24.75
2018-11-28T02:47:51.380Z,28.83
2018-11-28T02:50:18.739Z,26.00
2018-11-28T02:52:46.175Z,26.25
2018-11-28T02:55:14.089Z,27.48
2018-11-28T02:57:41.940Z,27.07
2018-11-28T03:00:14.839Z,23.70
2018-11-28T03:02:42.171Z,26.20
2018-11-28T03:05:10.397Z,26.37
2018-11-28T03:07:37.769Z,26.90
2018-11-28T03:10:07.213Z,24.27
2018-11-28T03:12:34.559Z,23.45
2018-11-28T03:15:01.903Z,25.72
2018-11-28T03:17:29.413Z,25.95
2018-11-28T03:19:56.974Z,23.60
2018-11-28T03:22:24.301Z,22.13
2018-11-28T03:24:51.603Z,22.15
2018-11-28T03:27:19.206Z,21.75
2018-11-28T03:29:46.688Z,21.25
2018-11-28T03:32:14.053Z,20.70
2018-11-28T03:34:45.383Z,24.02
2018-11-28T03:37:11.440Z,21.75
2018-11-28T03:39:39.455Z,23.12
2018-11-28T03:42:06.842Z,22.77
2018-11-28T03:44:34.694Z,22.82
2018-11-28T03:47:02.251Z,23.83
2018-11-28T03:49:29.605Z,20.72
2018-11-28T03:51:57.180Z,20.52
2018-11-28T03:54:24.558Z,19.05
2018-11-28T03:56:51.962Z,18.87
2018-11-28T03:59:19.346Z,21.52
2018-11-28T04:01:46.697Z,21.77
2018-11-28T04:04:14.009Z,22.05
2018-11-28T04:06:41.320Z,24.43
2018-11-28T04:09:08.885Z,22.93
2018-11-28T04:11:36.213Z,21.95
2018-11-28T04:14:03.584Z,20.27
2018-11-28T04:16:30.930Z,23.70
2018-11-28T04:18:58.252Z,21.60
2018-11-28T04:21:26.158Z,26.40
2018-11-28T04:23:53.640Z,23.15
2018-11-28T04:26:21.873Z,22.20
2018-11-28T04:28:49.480Z,25.17
2018-11-28T04:31:16.820Z,26.52
2018-11-28T04:33:44.433Z,23.55
2018-11-28T04:36:12.001Z,24.75
2018-11-28T04:38:39.414Z,21.97
2018-11-28T04:41:06.853Z,22.60
2018-11-28T04:43:34.365Z,24.90
2018-11-28T04:46:02.252Z,21.60
2018-11-28T04:48:29.917Z,24.30
2018-11-28T04:50:57.218Z,25.48
2018-11-28T04:53:24.568Z,24.25
2018-11-28T04:55:51.897Z,24.05
2018-11-28T04:58:19.631Z,24.65
2018-11-28T05:00:47.016Z,22.73
2018-11-28T05:03:14.375Z,25.05
2018-11-28T05:05:41.753Z,22.82
2018-11-28T05:08:09.100Z,24.57
2018-11-28T05:10:36.501Z,21.77
2018-11-28T05:13:03.881Z,19.25
2018-11-28T05:15:31.752Z,22.35
2018-11-28T05:17:59.143Z,19.73
2018-11-28T05:20:26.940Z,23.32
2018-11-28T05:22:54.303Z,25.12
2018-11-28T05:25:23.402Z,25.08
2018-11-28T05:27:51.142Z,24.65
2018-11-28T05:30:20.940Z,26.55
2018-11-28T05:32:48.588Z,23.73
2018-11-28T05:35:16.481Z,23.22
2018-11-28T05:37:43.931Z,25.02
2018-11-28T05:40:11.936Z,25.05
2018-11-28T05:42:39.279Z,28.25
2018-11-28T05:45:08.616Z,26.02
2018-11-28T05:47:36.165Z,23.83
2018-11-28T05:50:03.958Z,29.00
2018-11-28T05:52:31.306Z,26.17
2018-11-28T05:54:59.036Z,28.00
2018-11-28T05:57:26.359Z,24.82
2018-11-28T05:59:53.821Z,27.32
2018-11-28T06:02:21.368Z,24.77
2018-11-28T06:04:48.785Z,28.35
2018-11-28T06:07:16.115Z,26.97
2018-11-28T06:09:43.393Z,27.87
2018-11-28T06:12:12.284Z,29.32
2018-11-28T06:14:39.567Z,27.37
2018-11-28T06:17:07.015Z,23.65
2018-11-28T06:19:34.371Z,22.05
2018-11-28T06:22:01.741Z,27.37
2018-11-28T06:24:29.086Z,26.07
2018-11-28T06:26:56.772Z,29.32
2018-11-28T06:29:24.063Z,26.70
2018-11-28T06:31:51.385Z,28.73
2018-11-28T06:34:18.950Z,27.80
2018-11-28T06:36:46.263Z,26.40
2018-11-28T06:39:13.708Z,22.48
2018-11-28T06:41:41.225Z,29.70
2018-11-28T06:44:08.576Z,25.97
2018-11-28T06:46:35.876Z,25.82
2018-11-28T06:49:03.243Z,24.67
2018-11-28T06:51:30.855Z,27.40
2018-11-28T06:53:58.181Z,26.42
2018-11-28T06:56:25.737Z,29.20
2018-11-28T06:58:53.293Z,27.25
2018-11-28T07:01:20.676Z,26.27
2018-11-28T07:03:47.976Z,25.82
2018-11-28T07:06:15.320Z,28.05
2018-11-28T07:08:42.873Z,27.35
2018-11-28T07:11:10.184Z,26.27
2018-11-28T07:13:37.513Z,29.05
2018-11-28T07:16:04.977Z,24.45
2018-11-28T07:18:38.053Z,26.17
2018-11-28T07:21:05.385Z,30.75
2018-11-28T07:23:32.943Z,30.37
2018-11-28T07:26:00.319Z,27.22
2018-11-28T07:28:27.609Z,28.02
2018-11-28T07:30:55.166Z,28.55
2018-11-28T07:33:22.560Z,25.12
2018-11-28T07:35:49.876Z,28.65
2018-11-28T07:38:17.308Z,27.17
2018-11-28T07:40:44.648Z,26.40
2018-11-28T07:43:12.702Z,23.87
2018-11-28T07:45:41.686Z,22.95
2018-11-28T07:48:09.223Z,23.45
2018-11-28T07:50:36.740Z,23.45
2018-11-28T07:53:04.091Z,22.58
2018-11-28T07:55:31.621Z,28.77
2018-11-28T07:57:58.992Z,23.87
2018-11-28T08:00:26.529Z,20.00
2018-11-28T08:02:53.876Z,21.93
2018-11-28T08:05:21.210Z,20.65
2018-11-28T08:07:48.536Z,24.45
2018-11-28T08:10:26.311Z,23.20
2018-11-28T08:12:57.864Z,21.27
2018-11-28T08:15:25.328Z,21.15
2018-11-28T08:17:52.681Z,25.60
2018-11-28T08:23:04.858Z,23.45
2018-11-28T08:25:32.250Z,24.07
2018-11-28T08:27:59.643Z,21.73
2018-11-28T08:30:27.391Z,23.07
2018-11-28T08:32:55.213Z,16.15
2018-11-28T08:35:22.843Z,19.85
2018-11-28T08:37:50.181Z,23.30
2018-11-28T08:40:18.370Z,24.02
2018-11-28T08:42:45.745Z,24.55
2018-11-28T08:45:14.512Z,24.72
2018-11-28T08:47:42.046Z,24.85
2018-11-28T08:50:10.632Z,23.98
2018-11-28T08:52:38.119Z,20.60
2018-11-28T08:55:06.436Z,19.77
2018-11-28T08:57:33.899Z,23.73
2018-11-28T09:00:01.473Z,22.37
2018-11-28T09:02:29.099Z,25.27
2018-11-28T09:04:56.433Z,25.17
2018-11-28T09:07:24.038Z,22.98
2018-11-28T09:09:51.667Z,25.27
2018-11-28T09:12:19.288Z,24.98
2018-11-28T09:14:46.770Z,26.12
2018-11-28T09:17:15.264Z,20.65
2018-11-28T09:19:41.899Z,26.70
2018-11-28T09:22:09.229Z,23.65
2018-11-28T09:24:36.735Z,27.82
2018-11-28T09:27:04.503Z,24.52
2018-11-28T09:29:31.898Z,25.43
2018-11-28T09:31:59.315Z,26.33
2018-11-28T09:34:26.871Z,21.87
2018-11-28T09:36:54.400Z,24.37
2018-11-28T09:39:21.761Z,26.35
2018-11-28T09:41:49.344Z,23.85
2018-11-28T09:44:16.686Z,24.50
2018-11-28T09:46:44.099Z,28.05
2018-11-28T09:49:11.664Z,26.80
2018-11-28T09:51:39.012Z,25.48
2018-11-28T09:54:06.392Z,27.58
2018-11-28T09:56:33.725Z,25.32
2018-11-28T09:59:01.285Z,23.73
2018-11-28T10:01:28.632Z,27.65
2018-11-28T10:03:55.977Z,27.42
2018-11-28T10:06:23.643Z,27.58
2018-11-28T10:08:51.291Z,27.70
2018-11-28T10:11:18.722Z,24.25
2018-11-28T10:13:46.288Z,25.88
2018-11-28T10:16:13.889Z,20.48
2018-11-28T10:18:41.221Z,26.40
2018-11-28T10:21:08.785Z,26.33
2018-11-28T10:23:36.170Z,24.57
2018-11-28T10:26:03.482Z,25.12
2018-11-28T10:28:31.057Z,28.50
2018-11-28T10:30:58.429Z,23.15
2018-11-28T10:33:26.065Z,25.08
2018-11-28T10:35:53.629Z,27.82
2018-11-28T10:38:21.465Z,30.50
2018-11-28T10:40:48.877Z,27.87
2018-11-28T10:43:16.209Z,25.77
2018-11-28T10:45:43.592Z,29.70
2018-11-28T10:48:11.732Z,25.90
2018-11-28T10:50:39.104Z,25.92
2018-11-28T10:53:06.812Z,28.30
2018-11-28T10:55:34.233Z,26.73
2018-11-28T10:58:01.775Z,26.77
2018-11-28T11:00:35.230Z,23.85
2018-11-28T11:03:08.094Z,26.80
2018-11-28T11:05:41.205Z,28.10
2018-11-28T11:08:13.843Z,27.80
2018-11-28T11:10:46.615Z,26.75
2018-11-28T11:13:19.300Z,26.37
2018-11-28T11:15:52.338Z,26.87
2018-11-28T11:18:20.731Z,27.32
2018-11-28T11:20:48.039Z,28.45
2018-11-28T11:23:15.857Z,26.85
2018-11-28T11:25:43.528Z,26.23
2018-11-28T11:28:10.921Z,25.85
2018-11-28T11:30:38.849Z,26.80
2018-11-28T11:33:06.659Z,25.85
2018-11-28T11:35:34.049Z,23.35
2018-11-28T11:38:01.805Z,24.85
2018-11-28T11:40:29.665Z,26.05
2018-11-28T11:42:57.082Z,24.60
2018-11-28T11:45:24.909Z,25.23
2018-11-28T11:47:52.777Z,25.82
2018-11-28T11:50:20.126Z,27.87
2018-11-28T11:52:47.505Z,26.37
2018-11-28T11:55:16.539Z,27.10
2018-11-28T11:57:43.775Z,27.32
2018-11-28T12:00:19.493Z,27.93
2018-11-28T12:02:48.764Z,21.93
2018-11-28T12:05:16.077Z,28.23
2018-11-28T12:07:43.445Z,27.15
2018-11-28T12:10:11.440Z,28.02
2018-11-28T12:12:38.984Z,24.12
2018-11-28T12:15:08.129Z,26.77
2018-11-28T12:17:35.749Z,25.90
2018-11-28T12:20:03.400Z,25.50
2018-11-28T12:22:31.124Z,26.65
2018-11-28T12:24:58.755Z,26.02
2018-11-28T12:27:26.155Z,28.30
2018-11-28T12:29:53.557Z,29.55
2018-11-28T12:32:21.372Z,26.70
2018-11-28T12:34:50.476Z,27.85
2018-11-28T12:37:18.051Z,26.25
2018-11-28T12:39:44.312Z,27.40
2018-11-28T12:42:11.877Z,28.20
2018-11-28T12:44:39.259Z,26.77
2018-11-28T12:47:06.666Z,26.97
2018-11-28T12:49:34.507Z,27.98
2018-11-28T12:52:02.086Z,29.23
2018-11-28T12:54:29.671Z,30.02
2018-11-28T12:56:57.003Z,25.62
2018-11-28T12:59:24.345Z,27.00
2018-11-28T13:01:51.726Z,27.87
2018-11-28T13:04:19.042Z,26.40
2018-11-28T13:06:46.419Z,26.10
2018-11-28T13:09:13.781Z,26.85
2018-11-28T13:11:41.280Z,26.95
2018-11-28T13:14:08.608Z,25.60
2018-11-28T13:16:36.081Z,25.75
2018-11-28T13:19:03.476Z,23.98
2018-11-28T13:21:31.134Z,25.02
2018-11-28T13:23:58.277Z,25.40
2018-11-28T13:26:25.573Z,25.32
2018-11-28T13:28:53.142Z,21.45
2018-11-28T13:31:20.438Z,24.35
2018-11-28T13:33:47.996Z,26.77
2018-11-28T13:36:15.621Z,21.37
2018-11-28T13:38:42.960Z,24.07
2018-11-28T13:41:10.530Z,23.65
2018-11-28T13:43:37.879Z,26.33
2018-11-28T13:46:07.279Z,23.77
2018-11-28T13:48:33.197Z,23.62
2018-11-28T13:51:00.521Z,22.73
2018-11-28T13:53:27.888Z,23.57
2018-11-28T13:56:57.081Z,23.90
2018-11-28T13:58:23.150Z,23.67
2018-11-28T14:00:50.510Z,22.90
2018-11-28T14:03:18.519Z,22.75
2018-11-28T14:05:46.057Z,23.67
2018-11-28T14:08:13.717Z,21.37
2018-11-28T14:10:41.032Z,18.52
2018-11-28T14:13:08.356Z,20.75
2018-11-28T14:15:35.972Z,19.80
2018-11-28T14:18:04.588Z,19.32
2018-11-28T14:20:31.934Z,21.97
2018-11-28T14:22:59.265Z,21.35
2018-11-28T14:25:26.837Z,21.80
2018-11-28T14:27:54.237Z,24.00
2018-11-28T14:30:21.986Z,17.87
2018-11-28T14:32:50.284Z,21.90
2018-11-28T14:35:17.672Z,23.75
2018-11-28T14:37:45.024Z,23.45
2018-11-28T14:40:13.183Z,23.27
2018-11-28T14:42:40.722Z,21.75
2018-11-28T14:45:09.958Z,23.40
2018-11-28T14:47:37.324Z,22.42
2018-11-28T14:50:05.673Z,22.77
2018-11-28T14:52:33.228Z,21.30
2018-11-28T14:55:00.560Z,23.83
2018-11-28T14:57:27.891Z,22.35
2018-11-28T14:59:55.458Z,22.60
2018-11-28T15:02:23.078Z,22.80
2018-11-28T15:04:50.814Z,23.80
2018-11-28T15:07:18.161Z,21.97
2018-11-28T15:09:50.926Z,21.05
2018-11-28T15:12:18.249Z,21.80
2018-11-28T15:14:46.749Z,19.92
2018-11-28T15:17:14.408Z,24.37
2018-11-28T15:19:41.773Z,24.85
2018-11-28T15:22:09.136Z,24.47
2018-11-28T15:24:36.470Z,22.13
2018-11-28T15:27:04.342Z,23.50
2018-11-28T15:29:31.701Z,28.12
2018-11-28T15:31:59.041Z,22.77
2018-11-28T15:34:26.374Z,23.62
2018-11-28T15:36:53.708Z,22.87
2018-11-28T15:39:21.299Z,20.92
2018-11-28T15:41:48.705Z,22.77
2018-11-28T15:44:16.241Z,22.02
2018-11-28T15:46:43.530Z,23.32
2018-11-28T15:49:10.846Z,22.07
2018-11-28T15:51:38.175Z,26.30
2018-11-28T15:54:05.998Z,24.50
2018-11-28T15:56:33.343Z,25.92
2018-11-28T15:59:00.700Z,24.75
2018-11-28T16:01:28.229Z,26.73
2018-11-28T16:03:55.568Z,25.45
2018-11-28T16:06:22.893Z,25.35
2018-11-28T16:08:56.779Z,22.87
2018-11-28T16:11:24.223Z,26.05
2018-11-28T16:13:51.567Z,22.90
2018-11-28T16:16:18.917Z,23.85
2018-11-28T16:18:46.234Z,23.98
2018-11-28T16:21:13.745Z,25.75
2018-11-28T16:23:41.130Z,24.40
2018-11-28T16:26:08.474Z,25.65
2018-11-28T16:28:35.854Z,25.88
2018-11-28T16:31:03.228Z,26.97
2018-11-28T16:33:30.702Z,24.30
2018-11-28T16:35:58.080Z,22.73
2018-11-28T16:38:26.333Z,26.30
2018-11-28T16:40:53.787Z,23.62
2018-11-28T16:43:21.300Z,21.85
2018-11-28T16:45:49.195Z,24.30
2018-11-28T16:48:16.525Z,24.15
2018-11-28T16:50:44.066Z,20.90
2018-11-28T16:53:11.678Z,25.90
2018-11-28T16:55:38.965Z,21.02
2018-11-28T16:58:07.195Z,24.00
2018-11-28T17:00:36.494Z,24.35
2018-11-28T17:03:06.099Z,25.97
2018-11-28T17:05:35.162Z,20.35
2018-11-28T17:08:04.881Z,22.40
2018-11-28T17:10:32.330Z,18.80
2018-11-28T17:12:59.990Z,20.25
2018-11-28T17:15:27.547Z,20.20
2018-11-28T17:17:55.159Z,22.67
2018-11-28T17:20:25.091Z,21.25
2018-11-28T17:22:53.205Z,21.35
2018-11-28T17:25:21.169Z,19.73
2018-11-28T17:27:48.970Z,22.50
2018-11-28T17:30:19.076Z,20.65
2018-11-28T17:32:46.253Z,22.87
2018-11-28T17:35:14.299Z,22.20
2018-11-28T17:37:41.858Z,22.00
2018-11-28T17:40:11.093Z,23.35
2018-11-28T17:42:38.806Z,23.47
2018-11-28T17:45:08.178Z,20.35
2018-11-28T17:47:35.711Z,22.22
2018-11-28T17:50:03.219Z,20.97
2018-11-28T17:52:30.750Z,22.40
2018-11-28T17:54:58.104Z,22.05
2018-11-28T17:57:25.509Z,21.17
2018-11-28T17:59:52.816Z,21.93
2018-11-28T18:02:20.221Z,22.82
2018-11-28T18:04:47.558Z,23.80
2018-11-28T18:07:14.873Z,21.60
2018-11-28T18:09:44.210Z,22.35
2018-11-28T18:12:13.275Z,22.58
2018-11-28T18:14:41.680Z,22.20
2018-11-28T18:17:09.576Z,20.20
2018-11-28T18:19:37.482Z,20.85
2018-11-28T18:22:05.970Z,24.72
2018-11-28T18:24:36.212Z,23.67
2018-11-28T18:27:06.089Z,22.13
2018-11-28T18:29:35.607Z,21.68
2018-11-28T18:32:04.511Z,22.77
2018-11-28T18:34:34.840Z,21.85
2018-11-28T18:37:03.324Z,20.48
2018-11-28T18:39:32.820Z,23.15
2018-11-28T18:42:02.307Z,22.10
2018-11-28T18:44:31.018Z,22.42
2018-11-28T18:47:00.871Z,22.17
2018-11-28T18:49:29.896Z,23.00
2018-11-28T18:51:58.516Z,23.12
2018-11-28T18:54:26.126Z,23.00
2018-11-28T18:56:54.898Z,19.25
2018-11-28T18:59:22.800Z,22.42
2018-11-28T19:01:52.442Z,21.73
2018-11-28T19:04:20.161Z,21.77
2018-11-28T19:06:47.495Z,20.08
2018-11-28T19:09:20.433Z,21.85
2018-11-28T19:11:48.120Z,23.77
2018-11-28T19:14:15.915Z,21.35
2018-11-28T19:16:45.011Z,20.52
2018-11-28T19:19:12.351Z,21.02
2018-11-28T19:21:42.539Z,19.12
2018-11-28T19:24:11.789Z,22.05
2018-11-28T19:26:40.878Z,22.02
2018-11-28T19:29:10.972Z,20.65
2018-11-28T19:31:42.090Z,22.70
2018-11-28T19:34:18.048Z,20.82
2018-11-28T19:36:41.529Z,21.50
2018-11-28T19:39:09.678Z,20.10
2018-11-28T19:41:39.548Z,20.70
2018-11-28T19:44:07.339Z,20.10
2018-11-28T19:46:34.870Z,21.82
2018-11-28T19:49:06.709Z,21.55
2018-11-28T19:51:34.890Z,22.67
2018-11-28T19:54:02.255Z,21.68
2018-11-28T19:56:29.581Z,20.60
2018-11-28T19:58:58.060Z,20.60
2018-11-28T20:01:25.649Z,21.27
2018-11-28T20:06:20.695Z,20.62
2018-11-28T20:08:48.098Z,19.73
2018-11-28T20:11:15.563Z,20.57
2018-11-28T20:13:42.898Z,19.32
2018-11-28T20:16:10.389Z,19.73
2018-11-28T20:18:37.927Z,20.25
2018-11-28T20:21:05.357Z,22.05
2018-11-28T20:23:32.910Z,20.45
2018-11-28T20:26:00.530Z,20.10
2018-11-28T20:28:27.865Z,18.62
2018-11-28T20:30:56.153Z,20.75
2018-11-28T20:33:23.536Z,21.77
2018-11-28T20:35:50.862Z,20.85
2018-11-28T20:38:19.983Z,20.72
2018-11-28T20:40:47.461Z,21.00
2018-11-28T20:43:15.099Z,21.42
2018-11-28T20:45:42.676Z,21.05
2018-11-28T20:48:10.292Z,21.93
2018-11-28T20:50:37.605Z,19.85
2018-11-28T20:53:20.489Z,19.50
2018-11-28T20:55:47.819Z,19.73
2018-11-28T20:58:16.032Z,22.45
2018-11-28T21:00:44.797Z,21.62
2018-11-28T21:03:12.162Z,20.80
2018-11-28T21:05:39.549Z,20.30
2018-11-28T21:08:08.214Z,19.70
2018-11-28T21:10:36.571Z,19.92
2018-11-28T21:13:04.171Z,19.98
2018-11-28T21:15:32.452Z,21.23
2018-11-28T21:18:00.152Z,22.17
2018-11-28T21:20:27.549Z,20.05
2018-11-28T21:22:58.263Z,20.50
2018-11-28T21:25:25.681Z,19.95
2018-11-28T21:27:53.251Z,17.62
2018-11-28T21:30:21.072Z,21.77
2018-11-28T21:32:48.898Z,20.30
2018-11-28T21:35:18.731Z,21.23
2018-11-28T21:37:46.431Z,20.75
2018-11-28T21:40:13.884Z,21.62
2018-11-28T21:42:41.245Z,19.07
2018-11-28T21:45:16.874Z,21.25
2018-11-28T21:47:44.268Z,19.90
2018-11-28T21:50:12.416Z,22.13
2018-11-28T21:52:40.209Z,21.75
2018-11-28T21:55:08.909Z,20.50
2018-11-28T21:57:36.403Z,19.32
2018-11-28T22:00:04.821Z,20.45
2018-11-28T22:02:32.137Z,21.07
2018-11-28T22:04:59.580Z,20.52
2018-11-28T22:07:27.286Z,22.40
2018-11-28T22:09:54.591Z,21.15
2018-11-28T22:12:21.888Z,20.20
2018-11-28T22:14:49.695Z,21.55
2018-11-28T22:17:17.074Z,21.50
2018-11-28T22:19:44.630Z,20.40
2018-11-28T22:22:12.577Z,20.72
2018-11-28T22:24:39.916Z,20.92
2018-11-28T22:27:07.502Z,22.10
2018-11-28T22:29:35.188Z,21.62
2018-11-28T22:32:02.726Z,20.85
2018-11-28T22:34:30.095Z,21.07
2018-11-28T22:36:57.608Z,24.20
2018-11-28T22:39:25.509Z,22.50
2018-11-28T22:41:52.797Z,23.07
2018-11-28T22:44:20.222Z,25.30
2018-11-28T22:46:47.551Z,24.30
2018-11-28T22:49:14.887Z,22.02
2018-11-28T22:51:42.450Z,23.55
2018-11-28T22:54:10.020Z,21.48
2018-11-28T22:56:37.325Z,22.90
2018-11-28T22:59:04.648Z,21.80
2018-11-28T23:01:38.699Z,22.73
2018-11-28T23:04:06.264Z,22.52
2018-11-28T23:06:34.044Z,24.43
2018-11-28T23:09:01.385Z,22.02
2018-11-28T23:11:28.681Z,22.98
2018-11-28T23:13:56.043Z,21.77
2018-11-28T23:16:24.391Z,23.87
2018-11-28T23:18:51.816Z,23.27
2018-11-28T23:21:19.292Z,22.10
2018-11-28T23:23:46.613Z,23.22
2018-11-28T23:26:14.354Z,21.42
2018-11-28T23:28:41.823Z,23.32
2018-11-28T23:31:09.137Z,24.72
2018-11-28T23:33:36.420Z,21.62
2018-11-28T23:36:03.766Z,22.17
2018-11-28T23:38:31.581Z,21.60
2018-11-28T23:40:59.085Z,20.27
2018-11-28T23:43:26.648Z,21.62
2018-11-28T23:45:54.015Z,21.20
2018-11-28T23:48:21.334Z,22.13
2018-11-28T23:50:48.764Z,22.95
2018-11-28T23:53:16.313Z,18.10
2018-11-28T23:55:43.690Z,20.17
2018-11-28T23:58:11.018Z,22.10
